sensor_id;sensor_type;location;lat;lon;timestamp;P1;durP1;ratioP1;P2;durP2;ratioP2
79023;SDS011;70306;44.764;37.688;2024-02-15T00:01:01;17.35;;;11.95;;
79023;SDS011;70306;44.764;37.688;2024-02-15T00:02:05;16.15;;;10.38;;
79023;SDS011;70306;44.764;37.688;2024-02-15T00:03:07;16.20;;;12.02;;
79023;SDS011;70306;44.764;37.688;2024-02-15T00:04:08;16.25;;;12.02;;
79023;SDS011;70306;44.764;37.688;2024-02-15T00:05:12;20.70;;;12.55;;
79023;SDS011;70306;44.764;37.688;2024-02-15T00:06:15;18.08;;;11.68;;
79023;SDS011;70306;44.764;37.688;2024-02-15T00:07:17;15.40;;;9.27;;
79023;SDS011;70306;44.764;37.688;2024-02-15T00:08:23;14.35;;;8.45;;
79023;SDS011;70306;44.764;37.688;2024-02-15T00:09:25;16.15;;;10.55;;
79023;SDS011;70306;44.764;37.688;2024-02-15T00:10:27;19.85;;;10.15;;
79023;SDS011;70306;44.764;37.688;2024-02-15T00:11:29;18.85;;;12.35;;
79023;SDS011;70306;44.764;37.688;2024-02-15T00:12:31;15.38;;;9.65;;
79023;SDS011;70306;44.764;37.688;2024-02-15T00:13:33;18.70;;;11.02;;
79023;SDS011;70306;44.764;37.688;2024-02-15T00:14:35;16.65;;;11.65;;
79023;SDS011;70306;44.764;37.688;2024-02-15T00:15:39;20.27;;;11.70;;
79023;SDS011;70306;44.764;37.688;2024-02-15T00:16:41;18.35;;;11.75;;
79023;SDS011;70306;44.764;37.688;2024-02-15T00:17:43;17.20;;;10.48;;
79023;SDS011;70306;44.764;37.688;2024-02-15T00:18:44;17.58;;;10.98;;
79023;SDS011;70306;44.764;37.688;2024-02-15T00:19:46;16.50;;;11.10;;
79023;SDS011;70306;44.764;37.688;2024-02-15T00:20:48;18.35;;;11.65;;
79023;SDS011;70306;44.764;37.688;2024-02-15T00:21:50;18.50;;;11.65;;
79023;SDS011;70306;44.764;37.688;2024-02-15T00:22:53;16.50;;;11.27;;
79023;SDS011;70306;44.764;37.688;2024-02-15T00:23:57;18.08;;;11.90;;
79023;SDS011;70306;44.764;37.688;2024-02-15T00:25:00;16.27;;;9.85;;
79023;SDS011;70306;44.764;37.688;2024-02-15T00:26:02;18.08;;;11.00;;
79023;SDS011;70306;44.764;37.688;2024-02-15T00:27:04;17.40;;;11.00;;
79023;SDS011;70306;44.764;37.688;2024-02-15T00:28:06;23.05;;;12.10;;
79023;SDS011;70306;44.764;37.688;2024-02-15T00:29:14;19.73;;;11.18;;
79023;SDS011;70306;44.764;37.688;2024-02-15T00:30:16;19.92;;;11.45;;
79023;SDS011;70306;44.764;37.688;2024-02-15T00:31:18;19.58;;;10.88;;
79023;SDS011;70306;44.764;37.688;2024-02-15T00:32:19;12.88;;;9.43;;
79023;SDS011;70306;44.764;37.688;2024-02-15T00:33:21;21.58;;;12.20;;
79023;SDS011;70306;44.764;37.688;2024-02-15T00:34:23;18.77;;;12.02;;
79023;SDS011;70306;44.764;37.688;2024-02-15T00:35:27;16.17;;;10.93;;
79023;SDS011;70306;44.764;37.688;2024-02-15T00:36:29;21.08;;;11.75;;
79023;SDS011;70306;44.764;37.688;2024-02-15T00:37:30;15.98;;;10.80;;
79023;SDS011;70306;44.764;37.688;2024-02-15T00:38:32;16.17;;;11.80;;
79023;SDS011;70306;44.764;37.688;2024-02-15T00:39:34;20.00;;;12.68;;
79023;SDS011;70306;44.764;37.688;2024-02-15T00:40:36;15.30;;;10.27;;
79023;SDS011;70306;44.764;37.688;2024-02-15T00:41:37;16.60;;;9.95;;
79023;SDS011;70306;44.764;37.688;2024-02-15T00:42:42;18.25;;;12.10;;
79023;SDS011;70306;44.764;37.688;2024-02-15T00:43:44;16.08;;;11.85;;
79023;SDS011;70306;44.764;37.688;2024-02-15T00:44:46;19.83;;;12.35;;
79023;SDS011;70306;44.764;37.688;2024-02-15T00:45:48;18.00;;;11.55;;
79023;SDS011;70306;44.764;37.688;2024-02-15T00:46:49;18.50;;;13.30;;
79023;SDS011;70306;44.764;37.688;2024-02-15T00:47:51;20.02;;;11.75;;
79023;SDS011;70306;44.764;37.688;2024-02-15T00:48:55;18.35;;;11.80;;
79023;SDS011;70306;44.764;37.688;2024-02-15T00:49:57;16.90;;;10.65;;
79023;SDS011;70306;44.764;37.688;2024-02-15T00:50:59;18.73;;;11.43;;
79023;SDS011;70306;44.764;37.688;2024-02-15T00:52:01;18.02;;;11.48;;
79023;SDS011;70306;44.764;37.688;2024-02-15T00:53:03;16.35;;;10.13;;
79023;SDS011;70306;44.764;37.688;2024-02-15T00:54:05;20.15;;;11.70;;
79023;SDS011;70306;44.764;37.688;2024-02-15T00:55:07;20.92;;;12.02;;
79023;SDS011;70306;44.764;37.688;2024-02-15T00:56:09;18.75;;;11.27;;
79023;SDS011;70306;44.764;37.688;2024-02-15T00:57:10;21.38;;;11.05;;
79023;SDS011;70306;44.764;37.688;2024-02-15T00:58:12;19.20;;;11.75;;
79023;SDS011;70306;44.764;37.688;2024-02-15T00:59:14;23.00;;;10.77;;
79023;SDS011;70306;44.764;37.688;2024-02-15T01:00:16;18.40;;;10.65;;
79023;SDS011;70306;44.764;37.688;2024-02-15T01:01:18;16.95;;;9.90;;
79023;SDS011;70306;44.764;37.688;2024-02-15T01:02:20;18.48;;;11.63;;
79023;SDS011;70306;44.764;37.688;2024-02-15T01:03:23;16.95;;;10.20;;
79023;SDS011;70306;44.764;37.688;2024-02-15T01:04:24;15.50;;;9.75;;
79023;SDS011;70306;44.764;37.688;2024-02-15T01:05:26;16.13;;;10.48;;
79023;SDS011;70306;44.764;37.688;2024-02-15T01:06:28;15.45;;;10.15;;
79023;SDS011;70306;44.764;37.688;2024-02-15T01:07:30;18.38;;;11.32;;
79023;SDS011;70306;44.764;37.688;2024-02-15T01:08:32;15.80;;;10.85;;
79023;SDS011;70306;44.764;37.688;2024-02-15T01:09:35;14.43;;;9.98;;
79023;SDS011;70306;44.764;37.688;2024-02-15T01:10:37;19.52;;;9.20;;
79023;SDS011;70306;44.764;37.688;2024-02-15T01:11:39;17.48;;;10.57;;
79023;SDS011;70306;44.764;37.688;2024-02-15T01:12:41;18.13;;;12.02;;
79023;SDS011;70306;44.764;37.688;2024-02-15T01:13:43;17.65;;;10.95;;
79023;SDS011;70306;44.764;37.688;2024-02-15T01:14:45;16.75;;;10.77;;
79023;SDS011;70306;44.764;37.688;2024-02-15T01:15:47;18.92;;;12.13;;
79023;SDS011;70306;44.764;37.688;2024-02-15T01:16:49;21.55;;;12.85;;
79023;SDS011;70306;44.764;37.688;2024-02-15T01:17:50;22.27;;;11.13;;
79023;SDS011;70306;44.764;37.688;2024-02-15T01:18:52;25.27;;;9.13;;
79023;SDS011;70306;44.764;37.688;2024-02-15T01:19:54;18.45;;;10.50;;
79023;SDS011;70306;44.764;37.688;2024-02-15T01:20:57;15.40;;;10.77;;
79023;SDS011;70306;44.764;37.688;2024-02-15T01:21:59;20.52;;;12.70;;
79023;SDS011;70306;44.764;37.688;2024-02-15T01:23:01;20.23;;;11.30;;
79023;SDS011;70306;44.764;37.688;2024-02-15T01:24:02;18.77;;;11.57;;
79023;SDS011;70306;44.764;37.688;2024-02-15T01:25:07;15.73;;;10.02;;
79023;SDS011;70306;44.764;37.688;2024-02-15T01:26:09;18.85;;;11.80;;
79023;SDS011;70306;44.764;37.688;2024-02-15T01:27:13;23.02;;;12.30;;
79023;SDS011;70306;44.764;37.688;2024-02-15T01:28:15;17.75;;;10.95;;
79023;SDS011;70306;44.764;37.688;2024-02-15T01:29:17;22.08;;;12.60;;
79023;SDS011;70306;44.764;37.688;2024-02-15T01:30:19;23.05;;;13.05;;
79023;SDS011;70306;44.764;37.688;2024-02-15T01:31:21;22.25;;;13.32;;
79023;SDS011;70306;44.764;37.688;2024-02-15T01:32:23;26.20;;;11.82;;
79023;SDS011;70306;44.764;37.688;2024-02-15T01:33:31;30.10;;;13.60;;
79023;SDS011;70306;44.764;37.688;2024-02-15T01:34:33;24.98;;;12.52;;
79023;SDS011;70306;44.764;37.688;2024-02-15T01:35:35;19.33;;;13.38;;
79023;SDS011;70306;44.764;37.688;2024-02-15T01:36:37;19.92;;;11.77;;
79023;SDS011;70306;44.764;37.688;2024-02-15T01:37:38;40.85;;;12.73;;
79023;SDS011;70306;44.764;37.688;2024-02-15T01:38:40;19.67;;;12.57;;
79023;SDS011;70306;44.764;37.688;2024-02-15T01:39:43;20.45;;;12.88;;
79023;SDS011;70306;44.764;37.688;2024-02-15T01:40:46;32.88;;;13.60;;
79023;SDS011;70306;44.764;37.688;2024-02-15T01:41:48;14.35;;;8.68;;
79023;SDS011;70306;44.764;37.688;2024-02-15T01:42:52;17.25;;;10.90;;
79023;SDS011;70306;44.764;37.688;2024-02-15T01:43:53;20.30;;;12.80;;
79023;SDS011;70306;44.764;37.688;2024-02-15T01:44:56;19.92;;;11.85;;
79023;SDS011;70306;44.764;37.688;2024-02-15T01:45:58;20.50;;;11.85;;
79023;SDS011;70306;44.764;37.688;2024-02-15T01:47:04;18.85;;;12.27;;
79023;SDS011;70306;44.764;37.688;2024-02-15T01:48:06;17.05;;;10.60;;
79023;SDS011;70306;44.764;37.688;2024-02-15T01:49:08;21.33;;;13.07;;
79023;SDS011;70306;44.764;37.688;2024-02-15T01:50:10;23.52;;;12.45;;
79023;SDS011;70306;44.764;37.688;2024-02-15T01:51:13;22.45;;;10.73;;
79023;SDS011;70306;44.764;37.688;2024-02-15T01:52:17;13.80;;;10.30;;
79023;SDS011;70306;44.764;37.688;2024-02-15T01:53:19;22.63;;;13.40;;
79023;SDS011;70306;44.764;37.688;2024-02-15T01:54:21;17.23;;;11.50;;
79023;SDS011;70306;44.764;37.688;2024-02-15T01:55:23;20.15;;;11.60;;
79023;SDS011;70306;44.764;37.688;2024-02-15T01:56:29;14.73;;;10.15;;
79023;SDS011;70306;44.764;37.688;2024-02-15T01:57:31;20.95;;;11.00;;
79023;SDS011;70306;44.764;37.688;2024-02-15T01:58:34;19.75;;;14.30;;
79023;SDS011;70306;44.764;37.688;2024-02-15T01:59:37;20.35;;;13.27;;
79023;SDS011;70306;44.764;37.688;2024-02-15T02:00:38;19.45;;;11.48;;
79023;SDS011;70306;44.764;37.688;2024-02-15T02:01:41;17.02;;;11.63;;
79023;SDS011;70306;44.764;37.688;2024-02-15T02:02:44;17.05;;;9.18;;
79023;SDS011;70306;44.764;37.688;2024-02-15T02:03:46;14.30;;;8.93;;
79023;SDS011;70306;44.764;37.688;2024-02-15T02:04:48;12.73;;;9.68;;
79023;SDS011;70306;44.764;37.688;2024-02-15T02:05:50;17.63;;;11.70;;
79023;SDS011;70306;44.764;37.688;2024-02-15T02:06:52;26.48;;;14.63;;
79023;SDS011;70306;44.764;37.688;2024-02-15T02:07:59;17.33;;;10.73;;
79023;SDS011;70306;44.764;37.688;2024-02-15T02:09:05;16.85;;;12.18;;
79023;SDS011;70306;44.764;37.688;2024-02-15T02:10:07;17.40;;;10.65;;
79023;SDS011;70306;44.764;37.688;2024-02-15T02:11:12;21.88;;;13.45;;
79023;SDS011;70306;44.764;37.688;2024-02-15T02:12:14;14.95;;;9.82;;
79023;SDS011;70306;44.764;37.688;2024-02-15T02:13:16;22.80;;;14.07;;
79023;SDS011;70306;44.764;37.688;2024-02-15T02:14:18;18.08;;;12.02;;
79023;SDS011;70306;44.764;37.688;2024-02-15T02:15:21;19.40;;;13.05;;
79023;SDS011;70306;44.764;37.688;2024-02-15T02:16:29;19.98;;;13.93;;
79023;SDS011;70306;44.764;37.688;2024-02-15T02:17:36;30.40;;;14.07;;
79023;SDS011;70306;44.764;37.688;2024-02-15T02:18:38;20.30;;;15.23;;
79023;SDS011;70306;44.764;37.688;2024-02-15T02:19:41;28.60;;;15.52;;
79023;SDS011;70306;44.764;37.688;2024-02-15T02:20:43;20.67;;;13.82;;
79023;SDS011;70306;44.764;37.688;2024-02-15T02:21:46;17.80;;;11.57;;
79023;SDS011;70306;44.764;37.688;2024-02-15T02:22:53;24.00;;;13.32;;
79023;SDS011;70306;44.764;37.688;2024-02-15T02:23:58;19.95;;;12.25;;
79023;SDS011;70306;44.764;37.688;2024-02-15T02:25:02;16.73;;;11.57;;
79023;SDS011;70306;44.764;37.688;2024-02-15T02:26:07;20.98;;;12.95;;
79023;SDS011;70306;44.764;37.688;2024-02-15T02:27:11;21.38;;;15.30;;
79023;SDS011;70306;44.764;37.688;2024-02-15T02:28:14;18.10;;;12.02;;
79023;SDS011;70306;44.764;37.688;2024-02-15T02:29:19;29.23;;;16.02;;
79023;SDS011;70306;44.764;37.688;2024-02-15T02:30:21;25.02;;;15.20;;
79023;SDS011;70306;44.764;37.688;2024-02-15T02:31:24;23.17;;;16.75;;
79023;SDS011;70306;44.764;37.688;2024-02-15T02:32:26;23.10;;;15.90;;
79023;SDS011;70306;44.764;37.688;2024-02-15T02:33:28;24.85;;;16.77;;
79023;SDS011;70306;44.764;37.688;2024-02-15T02:34:30;28.10;;;16.27;;
79023;SDS011;70306;44.764;37.688;2024-02-15T02:35:32;27.95;;;17.92;;
79023;SDS011;70306;44.764;37.688;2024-02-15T02:36:34;27.92;;;16.15;;
79023;SDS011;70306;44.764;37.688;2024-02-15T02:37:37;22.35;;;16.73;;
79023;SDS011;70306;44.764;37.688;2024-02-15T02:38:41;16.45;;;11.10;;
79023;SDS011;70306;44.764;37.688;2024-02-15T02:39:46;20.67;;;15.32;;
79023;SDS011;70306;44.764;37.688;2024-02-15T02:40:48;22.00;;;15.18;;
79023;SDS011;70306;44.764;37.688;2024-02-15T02:41:49;18.80;;;11.82;;
79023;SDS011;70306;44.764;37.688;2024-02-15T02:42:53;18.23;;;12.00;;
79023;SDS011;70306;44.764;37.688;2024-02-15T02:44:00;22.52;;;15.55;;
79023;SDS011;70306;44.764;37.688;2024-02-15T02:45:02;23.15;;;17.10;;
79023;SDS011;70306;44.764;37.688;2024-02-15T02:46:04;27.80;;;19.17;;
79023;SDS011;70306;44.764;37.688;2024-02-15T02:47:07;25.65;;;16.58;;
79023;SDS011;70306;44.764;37.688;2024-02-15T02:48:08;21.70;;;15.25;;
79023;SDS011;70306;44.764;37.688;2024-02-15T02:49:10;28.15;;;17.70;;
79023;SDS011;70306;44.764;37.688;2024-02-15T02:50:13;29.42;;;19.05;;
79023;SDS011;70306;44.764;37.688;2024-02-15T02:51:15;25.98;;;17.75;;
79023;SDS011;70306;44.764;37.688;2024-02-15T02:52:17;22.27;;;15.70;;
79023;SDS011;70306;44.764;37.688;2024-02-15T02:53:19;23.10;;;16.52;;
79023;SDS011;70306;44.764;37.688;2024-02-15T02:54:21;27.67;;;18.48;;
79023;SDS011;70306;44.764;37.688;2024-02-15T02:55:23;27.63;;;17.90;;
79023;SDS011;70306;44.764;37.688;2024-02-15T02:56:25;22.33;;;14.02;;
79023;SDS011;70306;44.764;37.688;2024-02-15T02:57:26;25.30;;;18.05;;
79023;SDS011;70306;44.764;37.688;2024-02-15T02:58:28;30.42;;;18.85;;
79023;SDS011;70306;44.764;37.688;2024-02-15T02:59:30;22.40;;;17.85;;
79023;SDS011;70306;44.764;37.688;2024-02-15T03:00:32;22.67;;;16.17;;
79023;SDS011;70306;44.764;37.688;2024-02-15T03:01:34;24.13;;;16.60;;
79023;SDS011;70306;44.764;37.688;2024-02-15T03:02:35;23.77;;;17.42;;
79023;SDS011;70306;44.764;37.688;2024-02-15T03:03:37;24.10;;;17.92;;
79023;SDS011;70306;44.764;37.688;2024-02-15T03:04:42;23.27;;;16.25;;
79023;SDS011;70306;44.764;37.688;2024-02-15T03:05:43;23.17;;;17.75;;
79023;SDS011;70306;44.764;37.688;2024-02-15T03:06:45;21.58;;;14.05;;
79023;SDS011;70306;44.764;37.688;2024-02-15T03:07:48;32.72;;;17.17;;
79023;SDS011;70306;44.764;37.688;2024-02-15T03:08:52;20.88;;;13.10;;
79023;SDS011;70306;44.764;37.688;2024-02-15T03:09:59;19.17;;;13.77;;
79023;SDS011;70306;44.764;37.688;2024-02-15T03:11:01;24.85;;;15.00;;
79023;SDS011;70306;44.764;37.688;2024-02-15T03:12:03;23.70;;;15.77;;
79023;SDS011;70306;44.764;37.688;2024-02-15T03:13:05;21.95;;;13.88;;
79023;SDS011;70306;44.764;37.688;2024-02-15T03:14:07;26.98;;;16.73;;
79023;SDS011;70306;44.764;37.688;2024-02-15T03:15:09;25.20;;;16.98;;
79023;SDS011;70306;44.764;37.688;2024-02-15T03:16:21;28.90;;;19.10;;
79023;SDS011;70306;44.764;37.688;2024-02-15T03:17:25;29.35;;;18.58;;
79023;SDS011;70306;44.764;37.688;2024-02-15T03:18:27;27.92;;;14.25;;
79023;SDS011;70306;44.764;37.688;2024-02-15T03:19:30;23.00;;;14.63;;
79023;SDS011;70306;44.764;37.688;2024-02-15T03:20:32;28.77;;;19.05;;
79023;SDS011;70306;44.764;37.688;2024-02-15T03:21:34;25.23;;;18.40;;
79023;SDS011;70306;44.764;37.688;2024-02-15T03:22:37;28.33;;;16.40;;
79023;SDS011;70306;44.764;37.688;2024-02-15T03:23:39;26.40;;;17.67;;
79023;SDS011;70306;44.764;37.688;2024-02-15T03:24:41;35.35;;;16.38;;
79023;SDS011;70306;44.764;37.688;2024-02-15T03:25:43;23.50;;;15.45;;
79023;SDS011;70306;44.764;37.688;2024-02-15T03:26:45;24.58;;;15.45;;
79023;SDS011;70306;44.764;37.688;2024-02-15T03:27:47;25.77;;;17.17;;
79023;SDS011;70306;44.764;37.688;2024-02-15T03:28:48;29.45;;;17.60;;
79023;SDS011;70306;44.764;37.688;2024-02-15T03:29:51;24.92;;;15.02;;
79023;SDS011;70306;44.764;37.688;2024-02-15T03:30:53;21.30;;;15.07;;
79023;SDS011;70306;44.764;37.688;2024-02-15T03:31:56;38.55;;;19.35;;
79023;SDS011;70306;44.764;37.688;2024-02-15T03:32:58;22.08;;;13.07;;
79023;SDS011;70306;44.764;37.688;2024-02-15T03:34:00;39.28;;;17.70;;
79023;SDS011;70306;44.764;37.688;2024-02-15T03:35:02;30.50;;;14.73;;
79023;SDS011;70306;44.764;37.688;2024-02-15T03:36:04;23.80;;;13.75;;
79023;SDS011;70306;44.764;37.688;2024-02-15T03:37:06;24.13;;;14.32;;
79023;SDS011;70306;44.764;37.688;2024-02-15T03:38:08;19.85;;;13.23;;
79023;SDS011;70306;44.764;37.688;2024-02-15T03:39:10;19.00;;;13.55;;
79023;SDS011;70306;44.764;37.688;2024-02-15T03:40:12;20.30;;;12.90;;
79023;SDS011;70306;44.764;37.688;2024-02-15T03:41:15;32.10;;;18.88;;
79023;SDS011;70306;44.764;37.688;2024-02-15T03:42:17;25.83;;;14.65;;
79023;SDS011;70306;44.764;37.688;2024-02-15T03:43:18;23.70;;;14.95;;
79023;SDS011;70306;44.764;37.688;2024-02-15T03:44:20;32.58;;;14.85;;
79023;SDS011;70306;44.764;37.688;2024-02-15T03:45:22;33.50;;;17.75;;
79023;SDS011;70306;44.764;37.688;2024-02-15T03:46:26;33.20;;;17.63;;
79023;SDS011;70306;44.764;37.688;2024-02-15T03:47:28;28.63;;;15.93;;
79023;SDS011;70306;44.764;37.688;2024-02-15T03:48:30;30.98;;;15.90;;
79023;SDS011;70306;44.764;37.688;2024-02-15T03:49:33;29.10;;;15.52;;
79023;SDS011;70306;44.764;37.688;2024-02-15T03:50:35;28.85;;;17.90;;
79023;SDS011;70306;44.764;37.688;2024-02-15T03:51:36;22.77;;;14.00;;
79023;SDS011;70306;44.764;37.688;2024-02-15T03:52:38;25.15;;;14.95;;
79023;SDS011;70306;44.764;37.688;2024-02-15T03:53:40;27.30;;;16.85;;
79023;SDS011;70306;44.764;37.688;2024-02-15T03:54:42;29.75;;;17.02;;
79023;SDS011;70306;44.764;37.688;2024-02-15T03:55:44;29.50;;;15.90;;
79023;SDS011;70306;44.764;37.688;2024-02-15T03:56:49;34.25;;;18.40;;
79023;SDS011;70306;44.764;37.688;2024-02-15T03:57:55;28.63;;;17.45;;
79023;SDS011;70306;44.764;37.688;2024-02-15T03:58:59;26.88;;;14.85;;
79023;SDS011;70306;44.764;37.688;2024-02-15T04:00:01;26.80;;;17.00;;
79023;SDS011;70306;44.764;37.688;2024-02-15T04:01:11;37.67;;;18.08;;
79023;SDS011;70306;44.764;37.688;2024-02-15T04:02:17;27.25;;;16.30;;
79023;SDS011;70306;44.764;37.688;2024-02-15T04:03:19;24.13;;;14.50;;
79023;SDS011;70306;44.764;37.688;2024-02-15T04:04:21;24.15;;;14.95;;
79023;SDS011;70306;44.764;37.688;2024-02-15T04:05:23;24.77;;;14.77;;
79023;SDS011;70306;44.764;37.688;2024-02-15T04:06:25;26.33;;;13.75;;
79023;SDS011;70306;44.764;37.688;2024-02-15T04:07:29;27.80;;;14.07;;
79023;SDS011;70306;44.764;37.688;2024-02-15T04:08:31;24.75;;;14.82;;
79023;SDS011;70306;44.764;37.688;2024-02-15T04:09:34;23.80;;;16.20;;
79023;SDS011;70306;44.764;37.688;2024-02-15T04:10:36;24.05;;;14.18;;
79023;SDS011;70306;44.764;37.688;2024-02-15T04:11:38;21.63;;;13.77;;
79023;SDS011;70306;44.764;37.688;2024-02-15T04:12:40;27.17;;;20.92;;
79023;SDS011;70306;44.764;37.688;2024-02-15T04:13:45;30.45;;;17.00;;
79023;SDS011;70306;44.764;37.688;2024-02-15T04:14:47;31.63;;;18.05;;
79023;SDS011;70306;44.764;37.688;2024-02-15T04:15:48;20.48;;;14.30;;
79023;SDS011;70306;44.764;37.688;2024-02-15T04:16:51;48.03;;;20.27;;
79023;SDS011;70306;44.764;37.688;2024-02-15T04:17:53;26.52;;;13.10;;
79023;SDS011;70306;44.764;37.688;2024-02-15T04:19:02;23.52;;;14.13;;
79023;SDS011;70306;44.764;37.688;2024-02-15T04:20:05;19.48;;;12.85;;
79023;SDS011;70306;44.764;37.688;2024-02-15T04:21:08;31.75;;;19.05;;
79023;SDS011;70306;44.764;37.688;2024-02-15T04:22:11;25.33;;;15.93;;
79023;SDS011;70306;44.764;37.688;2024-02-15T04:23:18;24.65;;;16.75;;
79023;SDS011;70306;44.764;37.688;2024-02-15T04:24:26;27.70;;;16.05;;
79023;SDS011;70306;44.764;37.688;2024-02-15T04:25:28;17.30;;;12.77;;
79023;SDS011;70306;44.764;37.688;2024-02-15T04:26:29;28.05;;;17.45;;
79023;SDS011;70306;44.764;37.688;2024-02-15T04:27:33;20.73;;;12.73;;
79023;SDS011;70306;44.764;37.688;2024-02-15T04:28:35;26.15;;;13.23;;
79023;SDS011;70306;44.764;37.688;2024-02-15T04:29:37;27.10;;;16.58;;
79023;SDS011;70306;44.764;37.688;2024-02-15T04:30:42;27.65;;;18.02;;
79023;SDS011;70306;44.764;37.688;2024-02-15T04:31:44;24.70;;;15.82;;
79023;SDS011;70306;44.764;37.688;2024-02-15T04:32:45;27.20;;;15.40;;
79023;SDS011;70306;44.764;37.688;2024-02-15T04:33:48;38.92;;;17.60;;
79023;SDS011;70306;44.764;37.688;2024-02-15T04:34:50;25.33;;;15.75;;
79023;SDS011;70306;44.764;37.688;2024-02-15T04:35:53;26.02;;;17.42;;
79023;SDS011;70306;44.764;37.688;2024-02-15T04:36:55;25.15;;;15.00;;
79023;SDS011;70306;44.764;37.688;2024-02-15T04:37:56;22.73;;;14.95;;
79023;SDS011;70306;44.764;37.688;2024-02-15T04:38:59;28.88;;;16.15;;
79023;SDS011;70306;44.764;37.688;2024-02-15T04:40:02;20.73;;;14.45;;
79023;SDS011;70306;44.764;37.688;2024-02-15T04:41:11;25.13;;;16.38;;
79023;SDS011;70306;44.764;37.688;2024-02-15T04:42:13;33.03;;;18.30;;
79023;SDS011;70306;44.764;37.688;2024-02-15T04:43:16;32.90;;;17.90;;
79023;SDS011;70306;44.764;37.688;2024-02-15T04:44:19;23.23;;;13.07;;
79023;SDS011;70306;44.764;37.688;2024-02-15T04:45:28;27.73;;;15.70;;
79023;SDS011;70306;44.764;37.688;2024-02-15T04:46:45;24.55;;;14.75;;
79023;SDS011;70306;44.764;37.688;2024-02-15T04:47:53;31.83;;;14.55;;
79023;SDS011;70306;44.764;37.688;2024-02-15T04:48:55;28.38;;;16.45;;
79023;SDS011;70306;44.764;37.688;2024-02-15T04:49:59;25.40;;;14.52;;
79023;SDS011;70306;44.764;37.688;2024-02-15T04:51:01;27.70;;;16.30;;
79023;SDS011;70306;44.764;37.688;2024-02-15T04:52:03;21.08;;;13.88;;
79023;SDS011;70306;44.764;37.688;2024-02-15T04:53:05;27.38;;;16.05;;
79023;SDS011;70306;44.764;37.688;2024-02-15T04:54:08;24.30;;;16.23;;
79023;SDS011;70306;44.764;37.688;2024-02-15T04:55:14;28.52;;;16.67;;
79023;SDS011;70306;44.764;37.688;2024-02-15T04:56:16;19.60;;;13.07;;
79023;SDS011;70306;44.764;37.688;2024-02-15T04:57:18;23.42;;;15.27;;
79023;SDS011;70306;44.764;37.688;2024-02-15T04:58:20;26.70;;;15.45;;
79023;SDS011;70306;44.764;37.688;2024-02-15T04:59:22;26.02;;;13.90;;
79023;SDS011;70306;44.764;37.688;2024-02-15T05:00:26;29.42;;;16.90;;
79023;SDS011;70306;44.764;37.688;2024-02-15T05:01:29;31.27;;;13.13;;
79023;SDS011;70306;44.764;37.688;2024-02-15T05:02:34;24.27;;;15.75;;
79023;SDS011;70306;44.764;37.688;2024-02-15T05:03:42;30.27;;;18.10;;
79023;SDS011;70306;44.764;37.688;2024-02-15T05:04:44;76.70;;;20.17;;
79023;SDS011;70306;44.764;37.688;2024-02-15T05:05:46;23.85;;;14.75;;
79023;SDS011;70306;44.764;37.688;2024-02-15T05:06:48;26.40;;;14.68;;
79023;SDS011;70306;44.764;37.688;2024-02-15T05:07:50;22.63;;;14.48;;
79023;SDS011;70306;44.764;37.688;2024-02-15T05:08:52;26.33;;;14.93;;
79023;SDS011;70306;44.764;37.688;2024-02-15T05:09:54;26.38;;;15.35;;
79023;SDS011;70306;44.764;37.688;2024-02-15T05:10:55;30.88;;;20.40;;
79023;SDS011;70306;44.764;37.688;2024-02-15T05:11:59;23.10;;;15.88;;
79023;SDS011;70306;44.764;37.688;2024-02-15T05:13:03;20.05;;;13.70;;
79023;SDS011;70306;44.764;37.688;2024-02-15T05:14:05;26.30;;;14.90;;
79023;SDS011;70306;44.764;37.688;2024-02-15T05:15:08;29.05;;;14.65;;
79023;SDS011;70306;44.764;37.688;2024-02-15T05:16:13;28.58;;;15.32;;
79023;SDS011;70306;44.764;37.688;2024-02-15T05:17:15;37.40;;;16.25;;
79023;SDS011;70306;44.764;37.688;2024-02-15T05:18:17;24.08;;;13.38;;
79023;SDS011;70306;44.764;37.688;2024-02-15T05:19:19;27.20;;;13.82;;
79023;SDS011;70306;44.764;37.688;2024-02-15T05:20:21;29.25;;;17.27;;
79023;SDS011;70306;44.764;37.688;2024-02-15T05:21:23;47.85;;;18.77;;
79023;SDS011;70306;44.764;37.688;2024-02-15T05:22:25;29.83;;;14.02;;
79023;SDS011;70306;44.764;37.688;2024-02-15T05:23:30;29.25;;;15.70;;
79023;SDS011;70306;44.764;37.688;2024-02-15T05:24:31;90.18;;;20.88;;
79023;SDS011;70306;44.764;37.688;2024-02-15T05:25:34;39.75;;;16.83;;
79023;SDS011;70306;44.764;37.688;2024-02-15T05:26:36;23.33;;;13.00;;
79023;SDS011;70306;44.764;37.688;2024-02-15T05:27:38;37.67;;;14.95;;
79023;SDS011;70306;44.764;37.688;2024-02-15T05:28:40;30.05;;;17.40;;
79023;SDS011;70306;44.764;37.688;2024-02-15T05:29:41;20.98;;;13.55;;
79023;SDS011;70306;44.764;37.688;2024-02-15T05:30:44;21.70;;;12.60;;
79023;SDS011;70306;44.764;37.688;2024-02-15T05:31:46;29.10;;;17.10;;
79023;SDS011;70306;44.764;37.688;2024-02-15T05:32:48;19.77;;;13.88;;
79023;SDS011;70306;44.764;37.688;2024-02-15T05:33:51;35.47;;;17.98;;
79023;SDS011;70306;44.764;37.688;2024-02-15T05:34:54;32.10;;;16.88;;
79023;SDS011;70306;44.764;37.688;2024-02-15T05:35:56;45.85;;;21.27;;
79023;SDS011;70306;44.764;37.688;2024-02-15T05:36:58;38.53;;;22.02;;
79023;SDS011;70306;44.764;37.688;2024-02-15T05:38:00;24.13;;;15.10;;
79023;SDS011;70306;44.764;37.688;2024-02-15T05:39:05;91.97;;;18.77;;
79023;SDS011;70306;44.764;37.688;2024-02-15T05:40:07;40.55;;;14.18;;
79023;SDS011;70306;44.764;37.688;2024-02-15T05:41:16;24.17;;;13.50;;
79023;SDS011;70306;44.764;37.688;2024-02-15T05:42:17;21.85;;;12.65;;
79023;SDS011;70306;44.764;37.688;2024-02-15T05:43:19;26.30;;;14.50;;
79023;SDS011;70306;44.764;37.688;2024-02-15T05:44:21;59.38;;;16.80;;
79023;SDS011;70306;44.764;37.688;2024-02-15T05:45:28;32.95;;;14.70;;
79023;SDS011;70306;44.764;37.688;2024-02-15T05:46:33;33.55;;;19.00;;
79023;SDS011;70306;44.764;37.688;2024-02-15T05:47:38;25.25;;;15.30;;
79023;SDS011;70306;44.764;37.688;2024-02-15T05:48:40;22.05;;;12.23;;
79023;SDS011;70306;44.764;37.688;2024-02-15T05:49:42;26.05;;;12.77;;
79023;SDS011;70306;44.764;37.688;2024-02-15T05:50:44;41.45;;;17.45;;
79023;SDS011;70306;44.764;37.688;2024-02-15T05:51:47;29.95;;;16.00;;
79023;SDS011;70306;44.764;37.688;2024-02-15T05:52:49;39.58;;;15.13;;
79023;SDS011;70306;44.764;37.688;2024-02-15T05:53:54;24.42;;;14.75;;
79023;SDS011;70306;44.764;37.688;2024-02-15T05:54:59;23.85;;;14.45;;
79023;SDS011;70306;44.764;37.688;2024-02-15T05:56:04;30.60;;;18.27;;
79023;SDS011;70306;44.764;37.688;2024-02-15T05:57:08;29.17;;;16.77;;
79023;SDS011;70306;44.764;37.688;2024-02-15T05:58:09;37.00;;;20.95;;
79023;SDS011;70306;44.764;37.688;2024-02-15T05:59:12;90.22;;;23.85;;
79023;SDS011;70306;44.764;37.688;2024-02-15T06:00:16;31.90;;;17.38;;
79023;SDS011;70306;44.764;37.688;2024-02-15T06:01:20;73.70;;;17.30;;
79023;SDS011;70306;44.764;37.688;2024-02-15T06:02:22;29.55;;;17.98;;